createdAt,value
2023-05-05T00:00:27.430Z,5.68
2023-05-05T00:02:56.435Z,5.35
2023-05-05T00:05:25.424Z,5.53
2023-05-05T00:07:54.658Z,5.38
2023-05-05T00:10:22.776Z,5.00
2023-05-05T00:12:51.670Z,5.35
2023-05-05T00:15:19.806Z,5.25
2023-05-05T00:17:52.925Z,5.47
2023-05-05T00:20:21.260Z,5.55
2023-05-05T00:22:49.158Z,5.13
2023-05-05T00:25:18.241Z,4.95
2023-05-05T00:27:46.182Z,5.65
2023-05-05T00:30:14.821Z,5.60
2023-05-05T00:32:43.398Z,5.85
2023-05-05T00:35:12.967Z,5.97
2023-05-05T00:37:40.924Z,6.20
2023-05-05T00:40:10.848Z,5.82
2023-05-05T00:42:42.941Z,6.28
2023-05-05T00:45:12.856Z,5.40
2023-05-05T00:47:42.659Z,5.55
2023-05-05T00:50:23.218Z,5.57
2023-05-05T00:52:52.117Z,5.45
2023-05-05T00:55:20.597Z,5.50
2023-05-05T00:57:50.151Z,6.20
2023-05-05T01:00:19.008Z,5.57
2023-05-05T01:02:47.087Z,6.00
2023-05-05T01:05:18.668Z,6.25
2023-05-05T01:07:56.968Z,6.20
2023-05-05T01:10:33.695Z,5.95
2023-05-05T01:13:15.146Z,5.60
2023-05-05T01:15:47.974Z,5.85
2023-05-05T01:18:25.506Z,5.80
2023-05-05T01:21:03.509Z,5.50
2023-05-05T01:24:02.470Z,5.88
2023-05-05T01:26:49.823Z,6.70
2023-05-05T01:29:39.433Z,6.05
2023-05-05T01:32:14.141Z,6.78
2023-05-05T01:34:47.222Z,6.70
2023-05-05T01:37:21.793Z,6.57
2023-05-05T01:39:54.127Z,5.95
2023-05-05T01:42:26.708Z,5.88
2023-05-05T01:44:55.723Z,6.80
2023-05-05T01:47:25.867Z,6.15
2023-05-05T01:49:56.765Z,6.35
2023-05-05T01:52:25.405Z,6.55
2023-05-05T01:54:55.387Z,6.75
2023-05-05T01:57:26.515Z,5.97
2023-05-05T01:59:57.436Z,6.95
2023-05-05T02:02:29.908Z,6.38
2023-05-05T02:05:00.659Z,6.72
2023-05-05T02:07:48.366Z,6.78
2023-05-05T02:10:19.981Z,7.10
2023-05-05T02:12:49.663Z,7.03
2023-05-05T02:15:18.785Z,7.57
2023-05-05T02:17:49.621Z,7.88
2023-05-05T02:20:20.817Z,8.38
2023-05-05T02:22:49.918Z,8.40
2023-05-05T02:25:18.508Z,8.17
2023-05-05T02:27:49.952Z,8.23
2023-05-05T02:30:21.119Z,8.77
2023-05-05T02:32:55.673Z,8.93
2023-05-05T02:35:33.223Z,8.80
2023-05-05T02:38:06.086Z,8.35
2023-05-05T02:40:41.224Z,8.02
2023-05-05T02:43:13.481Z,8.32
2023-05-05T02:45:41.726Z,9.13
2023-05-05T02:48:13.464Z,9.38
2023-05-05T02:50:42.288Z,10.15
2023-05-05T02:53:17.064Z,10.98
2023-05-05T02:55:52.182Z,11.23
2023-05-05T02:58:30.556Z,10.63
2023-05-05T03:01:10.361Z,9.57
2023-05-05T03:03:45.801Z,10.25
2023-05-05T03:06:20.638Z,10.13
2023-05-05T03:08:56.349Z,9.18
2023-05-05T03:11:33.691Z,11.35
2023-05-05T03:14:08.712Z,9.13
2023-05-05T03:16:39.579Z,11.35
2023-05-05T03:19:13.103Z,10.70
2023-05-05T03:21:43.825Z,10.00
2023-05-05T03:24:16.116Z,10.97
2023-05-05T03:26:50.706Z,10.18
2023-05-05T03:29:22.333Z,12.13
2023-05-05T03:31:51.246Z,9.77
2023-05-05T03:34:20.926Z,10.05
2023-05-05T03:36:50.039Z,9.57
2023-05-05T03:39:19.231Z,9.20
2023-05-05T03:41:48.259Z,9.38
2023-05-05T03:44:17.121Z,10.43
2023-05-05T03:46:46.009Z,9.48
2023-05-05T03:49:15.963Z,9.13
2023-05-05T03:51:48.419Z,9.93
2023-05-05T03:54:16.850Z,9.95
2023-05-05T03:56:45.471Z,9.20
2023-05-05T03:59:13.894Z,9.80
2023-05-05T04:01:41.959Z,9.73
2023-05-05T04:04:10.823Z,9.38
2023-05-05T04:06:39.363Z,9.45
2023-05-05T04:09:08.943Z,8.75
2023-05-05T04:11:38.849Z,8.40
2023-05-05T04:14:08.447Z,9.18
2023-05-05T04:16:36.686Z,8.82
2023-05-05T04:19:05.041Z,8.43
2023-05-05T04:21:34.709Z,9.00
2023-05-05T04:24:02.912Z,8.68
2023-05-05T04:26:33.278Z,8.57
2023-05-05T04:29:01.938Z,8.48
2023-05-05T04:31:30.727Z,8.32
2023-05-05T04:33:58.849Z,8.10
2023-05-05T04:36:27.915Z,8.32
2023-05-05T04:38:55.979Z,9.05
2023-05-05T04:41:25.034Z,8.50
2023-05-05T04:43:55.550Z,8.68
2023-05-05T04:46:23.614Z,8.65
2023-05-05T04:48:51.606Z,8.43
2023-05-05T04:51:20.610Z,8.13
2023-05-05T04:53:48.546Z,8.23
2023-05-05T04:56:16.941Z,8.13
2023-05-05T04:58:45.381Z,8.15
2023-05-05T05:01:14.725Z,8.02
2023-05-05T05:03:43.690Z,7.57
2023-05-05T05:06:12.245Z,7.30
2023-05-05T05:08:40.326Z,7.75
2023-05-05T05:11:08.263Z,8.80
2023-05-05T05:13:37.163Z,7.60
2023-05-05T05:16:05.373Z,8.35
2023-05-05T05:18:36.743Z,7.10
2023-05-05T05:21:05.612Z,7.30
2023-05-05T05:23:34.385Z,7.28
2023-05-05T05:26:05.636Z,7.40
2023-05-05T05:28:34.324Z,7.07
2023-05-05T05:31:03.020Z,7.18
2023-05-05T05:33:32.617Z,7.25
2023-05-05T05:36:01.903Z,6.82
2023-05-05T05:38:30.389Z,7.40
2023-05-05T05:41:06.808Z,7.18
2023-05-05T05:43:36.328Z,7.28
2023-05-05T05:46:08.295Z,7.50
2023-05-05T05:48:40.241Z,7.22
2023-05-05T05:51:09.593Z,8.50
2023-05-05T05:56:10.320Z,8.35
2023-05-05T05:58:39.094Z,7.90
2023-05-05T06:01:07.297Z,7.78
2023-05-05T06:03:36.873Z,7.80
2023-05-05T06:06:05.111Z,7.32
2023-05-05T06:08:35.271Z,7.00
2023-05-05T06:11:03.678Z,7.25
2023-05-05T06:13:32.144Z,5.80
2023-05-05T06:16:00.837Z,5.93
2023-05-05T06:18:29.632Z,6.22
2023-05-05T06:20:57.604Z,5.88
2023-05-05T06:23:28.582Z,5.18
2023-05-05T06:26:03.849Z,6.10
2023-05-05T06:28:31.838Z,6.35
2023-05-05T06:30:59.699Z,6.28
2023-05-05T06:33:28.397Z,7.28
2023-05-05T06:35:56.355Z,6.10
2023-05-05T06:38:24.854Z,6.07
2023-05-05T06:40:53.149Z,6.05
2023-05-05T06:43:22.932Z,6.57
2023-05-05T06:45:56.618Z,6.35
2023-05-05T06:48:25.027Z,6.83
2023-05-05T06:50:52.994Z,6.78
2023-05-05T06:53:21.877Z,7.40
2023-05-05T06:55:49.836Z,6.97
2023-05-05T06:58:18.343Z,7.32
2023-05-05T07:00:48.236Z,6.97
2023-05-05T07:05:44.539Z,8.50
2023-05-05T07:08:12.512Z,8.32
2023-05-05T07:10:40.447Z,8.45
2023-05-05T07:13:09.658Z,10.35
2023-05-05T07:15:37.705Z,8.98
2023-05-05T07:18:07.966Z,9.98
2023-05-05T07:23:03.546Z,9.90
2023-05-05T07:25:32.347Z,9.65
2023-05-05T07:28:00.331Z,10.02
2023-05-05T07:30:28.619Z,9.88
2023-05-05T07:32:57.213Z,9.90
2023-05-05T07:35:26.557Z,10.20
2023-05-05T07:37:54.842Z,9.95
2023-05-05T07:40:23.879Z,9.88
2023-05-05T07:42:51.845Z,10.57
2023-05-05T07:45:19.861Z,10.40
2023-05-05T07:47:48.889Z,10.23
2023-05-05T07:50:17.140Z,10.27
2023-05-05T07:52:51.731Z,10.55
2023-05-05T07:55:25.255Z,11.18
2023-05-05T07:57:53.176Z,10.68
2023-05-05T08:00:21.937Z,12.05
2023-05-05T08:02:50.584Z,11.13
2023-05-05T08:05:18.699Z,11.02
2023-05-05T08:07:48.166Z,11.00
2023-05-05T08:10:17.316Z,10.90
2023-05-05T08:12:45.438Z,10.80
2023-05-05T08:15:13.998Z,11.30
2023-05-05T08:17:47.336Z,11.45
2023-05-05T08:20:15.553Z,10.43
2023-05-05T08:22:43.672Z,10.93
2023-05-05T08:25:14.472Z,10.88
2023-05-05T08:27:43.607Z,11.48
2023-05-05T08:30:13.049Z,11.38
2023-05-05T08:32:41.970Z,11.00
2023-05-05T08:35:10.772Z,11.52
2023-05-05T08:37:39.512Z,11.60
2023-05-05T08:40:09.214Z,10.98
2023-05-05T08:45:11.097Z,10.90
2023-05-05T08:47:39.985Z,11.18
2023-05-05T08:50:12.062Z,10.57
2023-05-05T08:52:44.104Z,12.00
2023-05-05T08:55:25.936Z,11.10
2023-05-05T08:57:57.225Z,11.10
2023-05-05T09:00:27.492Z,11.50
2023-05-05T09:05:26.365Z,11.15
2023-05-05T09:07:55.068Z,11.40
2023-05-05T09:10:23.198Z,11.50
2023-05-05T09:12:51.608Z,12.25
2023-05-05T09:15:21.994Z,11.48
2023-05-05T09:17:49.984Z,10.93
2023-05-05T09:20:18.360Z,11.98
2023-05-05T09:22:48.337Z,11.32
2023-05-05T09:25:17.926Z,12.93
2023-05-05T09:27:50.341Z,11.85
2023-05-05T09:30:24.172Z,12.05
2023-05-05T09:32:55.786Z,12.15
2023-05-05T09:35:24.536Z,11.65
2023-05-05T09:37:52.430Z,11.85
2023-05-05T09:40:22.747Z,11.63
2023-05-05T09:45:31.023Z,11.00
2023-05-05T09:48:00.860Z,11.02
2023-05-05T09:50:33.078Z,10.77
2023-05-05T09:53:03.125Z,10.88
2023-05-05T09:55:32.095Z,11.07
2023-05-05T09:58:19.702Z,10.93
2023-05-05T10:00:47.996Z,11.68
2023-05-05T10:03:17.532Z,12.63
2023-05-05T10:05:52.284Z,11.48
2023-05-05T10:08:23.483Z,10.48
2023-05-05T10:10:53.693Z,7.82
2023-05-05T10:13:23.020Z,6.85
2023-05-05T10:15:52.492Z,7.07
2023-05-05T10:18:26.470Z,5.97
2023-05-05T10:20:58.971Z,6.00
2023-05-05T10:23:34.658Z,7.22
2023-05-05T10:26:04.584Z,4.22
2023-05-05T10:28:35.547Z,3.97
2023-05-05T10:31:12.866Z,4.50
2023-05-05T10:33:55.933Z,3.95
2023-05-05T10:36:25.575Z,1.50
2023-05-05T10:38:57.550Z,1.65
2023-05-05T10:41:26.236Z,2.50
2023-05-05T10:43:56.672Z,2.40
2023-05-05T10:46:26.594Z,4.30
2023-05-05T10:49:03.575Z,4.30
2023-05-05T10:51:45.505Z,4.03
2023-05-05T10:54:20.787Z,4.38
2023-05-05T10:56:51.658Z,3.72
2023-05-05T10:59:41.891Z,3.30
2023-05-05T11:02:24.228Z,3.40
2023-05-05T11:05:10.850Z,3.90
2023-05-05T11:07:40.180Z,4.03
2023-05-05T11:10:09.583Z,3.93
2023-05-05T11:13:19.304Z,3.70
2023-05-05T11:15:47.630Z,3.20
2023-05-05T11:18:37.139Z,3.90
2023-05-05T11:23:47.622Z,3.15
2023-05-05T11:26:16.335Z,4.40
2023-05-05T11:29:00.357Z,3.88
2023-05-05T11:31:29.189Z,3.63
2023-05-05T11:34:30.564Z,3.30
2023-05-05T11:37:03.268Z,3.70
2023-05-05T11:39:45.044Z,3.50
2023-05-05T11:42:28.084Z,3.28
2023-05-05T11:44:57.728Z,3.30
2023-05-05T11:47:30.597Z,4.30
2023-05-05T11:49:59.708Z,3.67
2023-05-05T11:52:29.012Z,4.03
2023-05-05T11:55:04.126Z,4.85
2023-05-05T11:57:32.158Z,5.05
2023-05-05T12:00:01.752Z,4.75
2023-05-05T12:02:33.234Z,4.80
2023-05-05T12:05:02.486Z,4.60
2023-05-05T12:07:33.603Z,4.07
2023-05-05T12:10:02.543Z,3.17
2023-05-05T12:12:38.122Z,3.58
2023-05-05T12:15:08.332Z,4.25
2023-05-05T12:20:11.869Z,4.68
2023-05-05T12:22:41.670Z,5.15
2023-05-05T12:25:11.182Z,4.57
2023-05-05T12:27:39.268Z,4.78
2023-05-05T12:30:16.718Z,5.28
2023-05-05T12:32:46.014Z,4.38
2023-05-05T12:35:16.366Z,4.85
2023-05-05T12:37:45.909Z,5.22
2023-05-05T12:40:45.246Z,5.13
2023-05-05T12:43:25.496Z,4.80
2023-05-05T12:46:09.182Z,4.47
2023-05-05T12:48:39.003Z,4.30
2023-05-05T12:51:20.187Z,4.47
2023-05-05T12:53:50.907Z,3.95
2023-05-05T12:56:33.590Z,3.60
2023-05-05T12:59:02.047Z,3.33
2023-05-05T13:01:30.565Z,3.40
2023-05-05T13:04:13.183Z,3.65
2023-05-05T13:06:42.933Z,3.20
2023-05-05T13:09:24.493Z,3.22
2023-05-05T13:11:52.790Z,3.50
2023-05-05T13:14:20.736Z,3.28
2023-05-05T13:16:52.661Z,3.40
2023-05-05T13:19:20.681Z,3.25
2023-05-05T13:21:48.753Z,3.00
2023-05-05T13:24:31.179Z,3.30
2023-05-05T13:27:04.366Z,3.33
2023-05-05T13:29:33.813Z,3.25
2023-05-05T13:32:01.912Z,3.40
2023-05-05T13:34:29.810Z,3.50
2023-05-05T13:36:58.699Z,3.13
2023-05-05T13:39:28.457Z,3.75
2023-05-05T13:41:56.424Z,3.47
2023-05-05T13:44:24.893Z,3.70
2023-05-05T13:46:53.499Z,3.92
2023-05-05T13:49:22.021Z,3.83
2023-05-05T13:51:50.414Z,4.05
2023-05-05T13:54:18.373Z,3.85
2023-05-05T13:56:47.729Z,3.25
2023-05-05T13:59:16.630Z,3.55
2023-05-05T14:01:44.574Z,3.63
2023-05-05T14:04:13.047Z,3.28
2023-05-05T14:06:41.814Z,2.97
2023-05-05T14:09:09.856Z,3.10
2023-05-05T14:11:37.752Z,3.00
2023-05-05T14:14:08.312Z,2.70
2023-05-05T14:16:36.477Z,3.25
2023-05-05T14:19:04.941Z,2.88
2023-05-05T14:21:33.605Z,2.72
2023-05-05T14:24:01.513Z,2.78
2023-05-05T14:26:30.426Z,2.88
2023-05-05T14:28:58.340Z,2.90
2023-05-05T14:31:29.075Z,3.45
2023-05-05T14:33:58.076Z,3.63
2023-05-05T14:36:26.856Z,3.60
2023-05-05T14:38:55.939Z,3.67
2023-05-05T14:41:23.921Z,4.10
2023-05-05T14:43:52.294Z,4.40
2023-05-05T14:46:21.014Z,4.93
2023-05-05T14:48:51.165Z,4.30
2023-05-05T14:51:19.870Z,5.55
2023-05-05T14:53:48.224Z,4.07
2023-05-05T14:56:16.189Z,3.47
2023-05-05T14:58:44.514Z,3.58
2023-05-05T15:01:13.366Z,3.08
2023-05-05T15:03:43.185Z,3.92
2023-05-05T15:06:13.044Z,3.00
2023-05-05T15:11:08.852Z,2.50
2023-05-05T15:13:39.065Z,2.38
2023-05-05T15:16:07.863Z,2.25
2023-05-05T15:18:35.885Z,1.70
2023-05-05T15:21:05.174Z,1.70
2023-05-05T15:23:34.762Z,1.90
2023-05-05T15:26:03.306Z,1.50
2023-05-05T15:28:31.714Z,1.58
2023-05-05T15:31:01.830Z,1.50
2023-05-05T15:33:31.939Z,1.60
2023-05-05T15:36:00.438Z,1.55
2023-05-05T15:38:29.318Z,1.38
2023-05-05T15:40:59.079Z,1.40
2023-05-05T15:43:28.236Z,1.75
2023-05-05T15:45:56.193Z,1.70
2023-05-05T15:48:25.214Z,1.17
2023-05-05T15:50:53.149Z,0.93
2023-05-05T15:53:22.977Z,0.77
2023-05-05T15:55:51.020Z,0.90
2023-05-05T15:58:20.849Z,1.10
2023-05-05T16:00:49.723Z,1.17
2023-05-05T16:03:17.838Z,1.30
2023-05-05T16:05:47.158Z,1.25
2023-05-05T16:08:17.224Z,1.45
2023-05-05T16:10:45.224Z,2.13
2023-05-05T16:13:14.560Z,1.63
2023-05-05T16:15:44.689Z,2.00
2023-05-05T16:18:13.150Z,2.13
2023-05-05T16:20:41.716Z,2.40
2023-05-05T16:23:09.737Z,2.13
2023-05-05T16:25:37.757Z,2.63
2023-05-05T16:28:06.719Z,2.50
2023-05-05T16:30:35.368Z,3.20
2023-05-05T16:33:07.168Z,3.13
2023-05-05T16:35:36.234Z,3.40
2023-05-05T16:38:04.202Z,3.47
2023-05-05T16:40:33.079Z,3.22
2023-05-05T16:43:01.028Z,2.92
2023-05-05T16:45:29.897Z,3.03
2023-05-05T16:47:57.896Z,3.10
2023-05-05T16:50:27.730Z,3.15
2023-05-05T16:52:56.590Z,3.67
2023-05-05T16:55:25.832Z,3.78
2023-05-05T16:57:54.734Z,3.05
2023-05-05T17:00:22.641Z,3.03
2023-05-05T17:02:51.168Z,2.42
2023-05-05T17:05:19.653Z,2.00
2023-05-05T17:07:49.208Z,2.30
2023-05-05T17:12:45.803Z,1.88
2023-05-05T17:15:13.778Z,1.67
2023-05-05T17:17:43.049Z,1.50
2023-05-05T17:22:40.649Z,1.52
2023-05-05T17:25:11.670Z,1.50
2023-05-05T17:27:40.701Z,1.90
2023-05-05T17:30:10.517Z,2.58
2023-05-05T17:35:07.742Z,1.50
2023-05-05T17:37:37.108Z,1.50
2023-05-05T17:40:05.961Z,1.40
2023-05-05T17:42:36.660Z,1.70
2023-05-05T17:45:05.239Z,1.52
2023-05-05T17:47:33.197Z,1.60
2023-05-05T17:50:02.330Z,1.10
2023-05-05T17:52:30.345Z,1.48
2023-05-05T17:54:58.990Z,1.30
2023-05-05T17:57:27.379Z,1.42
2023-05-05T17:59:56.925Z,1.63
2023-05-05T18:04:54.233Z,1.40
2023-05-05T18:07:22.160Z,1.80
2023-05-05T18:09:50.802Z,1.42
2023-05-05T18:12:19.188Z,1.65
2023-05-05T18:14:47.193Z,1.70
2023-05-05T18:17:19.598Z,1.83
2023-05-05T18:19:49.132Z,1.80
2023-05-05T18:22:17.498Z,1.58
2023-05-05T18:24:47.467Z,1.75
2023-05-05T18:27:15.558Z,1.58
2023-05-05T18:29:44.084Z,2.17
2023-05-05T18:32:12.584Z,2.05
2023-05-05T18:34:41.926Z,2.20
2023-05-05T18:37:11.072Z,2.00
2023-05-05T18:39:39.201Z,2.33
2023-05-05T18:42:07.948Z,2.35
2023-05-05T18:44:36.344Z,2.53
2023-05-05T18:47:04.370Z,2.38
2023-05-05T18:49:32.223Z,2.95
2023-05-05T18:52:02.463Z,3.53
2023-05-05T18:54:30.875Z,3.17
2023-05-05T18:56:59.270Z,2.90
2023-05-05T18:59:27.363Z,2.90
2023-05-05T19:01:56.212Z,3.25
2023-05-05T19:04:30.682Z,2.95
2023-05-05T19:07:01.734Z,2.97
2023-05-05T19:09:30.129Z,2.75
2023-05-05T19:11:58.059Z,2.90
2023-05-05T19:14:25.930Z,3.05
2023-05-05T19:16:56.311Z,2.47
2023-05-05T19:19:24.811Z,2.83
2023-05-05T19:21:53.231Z,3.13
2023-05-05T19:24:22.456Z,3.15
2023-05-05T19:26:50.782Z,3.17
2023-05-05T19:29:18.826Z,2.85
2023-05-05T19:31:46.867Z,3.20
2023-05-05T19:34:15.323Z,3.80
2023-05-05T19:36:43.665Z,4.00
2023-05-05T19:39:13.031Z,3.72
2023-05-05T19:41:43.906Z,3.72
2023-05-05T19:44:11.847Z,4.05
2023-05-05T19:46:40.397Z,3.83
2023-05-05T19:49:08.816Z,4.30
2023-05-05T19:51:36.752Z,4.32
2023-05-05T19:54:05.345Z,4.00
2023-05-05T19:56:33.321Z,4.13
2023-05-05T19:59:05.742Z,4.22
2023-05-05T20:01:34.077Z,4.28
2023-05-05T20:04:03.385Z,4.35
2023-05-05T20:06:32.445Z,4.95
2023-05-05T20:09:00.794Z,5.80
2023-05-05T20:11:29.360Z,6.00
2023-05-05T20:13:58.235Z,5.40
2023-05-05T20:16:27.570Z,5.18
2023-05-05T20:18:56.051Z,4.90
2023-05-05T20:21:24.491Z,5.05
2023-05-05T20:23:54.519Z,5.38
2023-05-05T20:26:26.320Z,5.82
2023-05-05T20:28:54.310Z,5.22
2023-05-05T20:31:22.285Z,5.20
2023-05-05T20:33:52.527Z,5.90
2023-05-05T20:36:20.528Z,5.55
2023-05-05T20:38:48.974Z,6.85
2023-05-05T20:41:17.313Z,7.72
2023-05-05T20:43:45.313Z,9.65
2023-05-05T20:46:14.145Z,9.80
2023-05-05T20:48:43.252Z,10.13
2023-05-05T20:51:12.552Z,13.00
2023-05-05T20:53:41.648Z,12.38
2023-05-05T20:56:09.543Z,12.50
2023-05-05T20:58:39.010Z,13.87
2023-05-05T21:01:07.409Z,13.38
2023-05-05T21:03:35.368Z,13.63
2023-05-05T21:06:03.746Z,12.82
2023-05-05T21:08:33.486Z,13.02
2023-05-05T21:13:29.438Z,12.88
2023-05-05T21:15:58.252Z,12.30
2023-05-05T21:18:27.613Z,13.30
2023-05-05T21:23:24.585Z,13.77
2023-05-05T21:25:54.311Z,16.02
2023-05-05T21:28:22.629Z,15.15
2023-05-05T21:31:10.134Z,14.98
2023-05-05T21:33:40.303Z,13.50
2023-05-05T21:36:08.387Z,13.02
2023-05-05T21:38:36.751Z,13.00
2023-05-05T21:41:06.792Z,13.80
2023-05-05T21:43:34.755Z,13.63
2023-05-05T21:46:04.098Z,15.63
2023-05-05T21:48:32.604Z,14.73
2023-05-05T21:51:00.998Z,15.73
2023-05-05T21:53:29.947Z,15.98
2023-05-05T21:55:57.876Z,15.85
2023-05-05T21:58:28.357Z,17.60
2023-05-05T22:00:56.470Z,17.17
2023-05-05T22:03:26.103Z,17.08
2023-05-05T22:05:55.164Z,15.27
2023-05-05T22:08:23.183Z,14.48
2023-05-05T22:10:52.673Z,15.68
2023-05-05T22:13:20.769Z,15.80
2023-05-05T22:15:50.263Z,16.10
2023-05-05T22:18:18.756Z,16.05
2023-05-05T22:20:46.914Z,14.38
2023-05-05T22:23:16.673Z,16.17
2023-05-05T22:25:45.426Z,14.43
2023-05-05T22:28:13.387Z,15.30
2023-05-05T22:30:42.437Z,14.95
2023-05-05T22:33:11.814Z,16.02
2023-05-05T22:35:41.014Z,14.57
2023-05-05T22:38:09.437Z,13.45
2023-05-05T22:40:37.424Z,13.88
2023-05-05T22:43:05.570Z,14.02
2023-05-05T22:45:34.822Z,13.05
2023-05-05T22:48:03.338Z,11.93
2023-05-05T22:50:32.788Z,11.57
2023-05-05T22:53:01.153Z,11.52
2023-05-05T22:55:30.046Z,11.82
2023-05-05T22:57:57.937Z,10.40
2023-05-05T23:00:27.174Z,11.15
2023-05-05T23:02:55.289Z,10.32
2023-05-05T23:05:23.762Z,11.65
2023-05-05T23:07:53.679Z,11.38
2023-05-05T23:12:49.470Z,10.27
2023-05-05T23:15:18.637Z,11.82
2023-05-05T23:17:46.631Z,11.30
2023-05-05T23:20:15.261Z,12.50
2023-05-05T23:22:43.861Z,11.63
2023-05-05T23:25:13.256Z,12.15
2023-05-05T23:30:11.739Z,11.13
2023-05-05T23:32:39.768Z,11.20
2023-05-05T23:35:09.792Z,12.00
2023-05-05T23:37:37.928Z,11.45
2023-05-05T23:40:07.926Z,11.88
2023-05-05T23:42:38.431Z,12.10
2023-05-05T23:45:07.183Z,12.60
2023-05-05T23:47:35.710Z,13.20
2023-05-05T23:50:04.130Z,11.75
2023-05-05T23:52:32.542Z,12.23
2023-05-05T23:55:01.517Z,11.82
2023-05-05T23:57:29.896Z,11.82
